Time;durP1;ratioP1;P1;durP2;ratioP2;P2;SDS_P1;SDS_P2;PMS_P1;PMS_P2;Temp;Humidity;BMP_temperature;BMP_pressure;BME280_temperature;BME280_humidity;BME280_pressure;Samples;Min_cycle;Max_cycle;Signal;HPM_P1;HPM_P2
2021/05/28 00:00:37;;;;;;;22.10;20.40;;;;;;;;;;5014950;28;20464;-81
2021/05/28 00:03:04;;;;;;;20.80;19.40;;;;;;;;;;5014598;28;20460;-80
2021/05/28 00:05:31;;;;;;;21.57;19.70;;;;;;;;;;5015461;28;20796;-81
2021/05/28 00:07:59;;;;;;;22.70;21.17;;;;;;;;;;5014630;28;20444;-80
2021/05/28 00:10:27;;;;;;;21.13;19.83;;;;;;;;;;4997621;28;20426;-80
2021/05/28 00:12:54;;;;;;;23.43;21.87;;;;;;;;;;5014874;28;20423;-80
2021/05/28 00:15:21;;;;;;;20.93;19.30;;;;;;;;;;5014559;28;20418;-81
2021/05/28 00:17:47;;;;;;;23.50;21.90;;;;;;;;;;5014654;28;20419;-80
2021/05/28 00:20:15;;;;;;;21.47;20.00;;;;;;;;;;5014607;28;20798;-80
2021/05/28 00:22:42;;;;;;;22.27;20.73;;;;;;;;;;5014613;28;20448;-80
2021/05/28 00:25:09;;;;;;;22.57;20.77;;;;;;;;;;5014368;28;20823;-80
2021/05/28 00:27:37;;;;;;;23.73;22.17;;;;;;;;;;5014173;28;20441;-81
2021/05/28 00:30:06;;;;;;;22.27;20.63;;;;;;;;;;5014527;28;20418;-80
2021/05/28 00:32:33;;;;;;;22.83;21.20;;;;;;;;;;5015212;28;20907;-80
2021/05/28 00:35:00;;;;;;;24.57;22.40;;;;;;;;;;4997180;28;20415;-81
2021/05/28 00:37:27;;;;;;;23.07;20.87;;;;;;;;;;5014573;28;20429;-80
2021/05/28 00:39:54;;;;;;;22.70;20.77;;;;;;;;;;4996741;28;21034;-80
2021/05/28 00:42:21;;;;;;;20.97;19.83;;;;;;;;;;4996840;28;20426;-80
2021/05/28 00:44:48;;;;;;;23.13;21.23;;;;;;;;;;5014393;28;20419;-80
2021/05/28 00:47:15;;;;;;;21.67;20.10;;;;;;;;;;5013978;28;20418;-80
2021/05/28 00:49:42;;;;;;;22.43;20.87;;;;;;;;;;5014060;28;20811;-80
2021/05/28 00:52:09;;;;;;;21.77;20.17;;;;;;;;;;5015022;28;20728;-80
2021/05/28 00:54:36;;;;;;;23.50;21.70;;;;;;;;;;5013788;28;20462;-81
2021/05/28 00:57:03;;;;;;;22.37;20.87;;;;;;;;;;5014048;28;20453;-81
2021/05/28 00:59:30;;;;;;;22.20;20.70;;;;;;;;;;5014148;28;20508;-80
2021/05/28 01:01:58;;;;;;;23.93;21.57;;;;;;;;;;5013754;28;20439;-81
2021/05/28 01:04:25;;;;;;;22.03;20.10;;;;;;;;;;5014025;28;20448;-80
2021/05/28 01:06:51;;;;;;;21.93;20.07;;;;;;;;;;5013832;28;20399;-81
2021/05/28 01:09:18;;;;;;;21.63;20.20;;;;;;;;;;4996088;28;20438;-80
2021/05/28 01:11:45;;;;;;;23.77;22.07;;;;;;;;;;5013853;28;20419;-81
2021/05/28 01:14:12;;;;;;;23.10;21.30;;;;;;;;;;4996676;28;20419;-82
2021/05/28 01:16:39;;;;;;;22.53;20.90;;;;;;;;;;5013771;28;20415;-82
2021/05/28 01:19:07;;;;;;;22.73;20.80;;;;;;;;;;4996307;28;20463;-82
2021/05/28 01:21:34;;;;;;;22.90;21.40;;;;;;;;;;5013877;28;20408;-82
2021/05/28 01:24:02;;;;;;;22.97;21.20;;;;;;;;;;5014170;28;20481;-82
2021/05/28 01:26:29;;;;;;;23.80;21.90;;;;;;;;;;4996353;28;20766;-82
2021/05/28 01:28:56;;;;;;;24.20;21.90;;;;;;;;;;5013735;28;20407;-82
2021/05/28 01:31:23;;;;;;;24.40;21.70;;;;;;;;;;5013608;28;20454;-83
2021/05/28 01:33:50;;;;;;;23.20;21.60;;;;;;;;;;5014103;28;20422;-82
2021/05/28 01:36:17;;;;;;;24.77;22.23;;;;;;;;;;5013820;28;20888;-82
2021/05/28 01:38:44;;;;;;;23.33;21.70;;;;;;;;;;5013336;28;20448;-82
2021/05/28 01:41:11;;;;;;;23.43;21.63;;;;;;;;;;5013647;28;20454;-82
2021/05/28 01:43:39;;;;;;;22.63;21.17;;;;;;;;;;5013644;28;20892;-82
2021/05/28 01:46:06;;;;;;;22.13;20.60;;;;;;;;;;4996349;28;20427;-82
2021/05/28 01:48:33;;;;;;;22.57;20.90;;;;;;;;;;5013768;28;20461;-82
2021/05/28 01:50:59;;;;;;;21.20;19.70;;;;;;;;;;5013695;28;20425;-82
2021/05/28 01:53:27;;;;;;;22.90;21.17;;;;;;;;;;5013730;28;20422;-82
2021/05/28 01:55:55;;;;;;;22.97;21.13;;;;;;;;;;5013808;28;20483;-83
2021/05/28 01:58:23;;;;;;;22.30;20.80;;;;;;;;;;5013517;28;20415;-82
2021/05/28 02:00:51;;;;;;;22.03;20.47;;;;;;;;;;5016275;28;20951;-82
2021/05/28 02:03:19;;;;;;;21.17;19.70;;;;;;;;;;4999779;28;20434;-82
2021/05/28 02:05:46;;;;;;;20.50;19.20;;;;;;;;;;5017680;28;20422;-82
2021/05/28 02:08:13;;;;;;;22.07;19.87;;;;;;;;;;5017372;28;20418;-82
2021/05/28 02:10:40;;;;;;;21.53;19.80;;;;;;;;;;5017008;28;20415;-82
2021/05/28 02:13:07;;;;;;;21.07;19.47;;;;;;;;;;5016981;28;20448;-82
2021/05/28 02:15:35;;;;;;;20.77;19.37;;;;;;;;;;5016997;28;20460;-82
2021/05/28 02:18:02;;;;;;;22.77;20.93;;;;;;;;;;5017280;28;20418;-82
2021/05/28 02:20:29;;;;;;;19.87;18.40;;;;;;;;;;5016826;28;20549;-82
2021/05/28 02:22:56;;;;;;;21.47;19.70;;;;;;;;;;5017160;28;20484;-82
2021/05/28 02:25:23;;;;;;;21.23;19.93;;;;;;;;;;5016764;28;20444;-82
2021/05/28 02:27:50;;;;;;;21.73;20.33;;;;;;;;;;5016879;28;20776;-83
2021/05/28 02:30:18;;;;;;;21.00;19.40;;;;;;;;;;4999420;28;20460;-82
2021/05/28 02:32:46;;;;;;;21.77;20.17;;;;;;;;;;4999310;28;20425;-82
2021/05/28 02:35:13;;;;;;;21.23;19.57;;;;;;;;;;5016678;28;20442;-82
2021/05/28 02:37:40;;;;;;;21.53;19.50;;;;;;;;;;5017370;28;20430;-82
2021/05/28 02:40:08;;;;;;;21.23;19.70;;;;;;;;;;4998925;28;20469;-82
2021/05/28 02:42:35;;;;;;;21.53;19.93;;;;;;;;;;5016865;28;20446;-82
2021/05/28 02:45:02;;;;;;;20.53;19.10;;;;;;;;;;4999144;28;20514;-82
2021/05/28 02:47:30;;;;;;;21.97;20.20;;;;;;;;;;4999046;28;20498;-82
2021/05/28 02:49:59;;;;;;;21.77;20.13;;;;;;;;;;5016593;28;20422;-82
2021/05/28 02:52:25;;;;;;;21.80;20.23;;;;;;;;;;5016954;28;20415;-83
2021/05/28 02:54:52;;;;;;;21.07;19.47;;;;;;;;;;5016232;28;20534;-83
2021/05/28 02:57:19;;;;;;;21.97;20.20;;;;;;;;;;5016008;28;20919;-82
2021/05/28 02:59:46;;;;;;;21.70;20.00;;;;;;;;;;5016146;28;20568;-82
2021/05/28 03:02:13;;;;;;;23.90;21.83;;;;;;;;;;5016209;28;20414;-83
2021/05/28 03:04:40;;;;;;;20.97;19.50;;;;;;;;;;5016480;28;20422;-82
2021/05/28 03:07:08;;;;;;;21.30;19.87;;;;;;;;;;5016213;28;20439;-82
2021/05/28 03:09:35;;;;;;;21.57;20.00;;;;;;;;;;4998793;28;20434;-82
2021/05/28 03:12:01;;;;;;;20.60;19.10;;;;;;;;;;5016035;28;20415;-83
2021/05/28 03:14:28;;;;;;;19.80;18.30;;;;;;;;;;5016122;28;20549;-82
2021/05/28 03:16:55;;;;;;;21.17;19.73;;;;;;;;;;4998714;28;20422;-83
2021/05/28 03:19:26;;;;;;;20.43;19.13;;;;;;;;;;5015796;28;20841;-82
2021/05/28 03:24:44;;;;;;;22.00;20.20;;;;;;;;;;5000543;28;20424;-81
2021/05/28 03:27:11;;;;;;;22.37;20.63;;;;;;;;;;5015626;28;20444;-80
2021/05/28 03:29:38;;;;;;;22.67;20.63;;;;;;;;;;5015744;28;20422;-80
2021/05/28 03:32:05;;;;;;;21.10;19.60;;;;;;;;;;4998233;28;20415;-80
2021/05/28 03:34:32;;;;;;;21.80;20.00;;;;;;;;;;5015511;28;20884;-80
2021/05/28 03:37:00;;;;;;;22.10;20.17;;;;;;;;;;5015105;28;20471;-80
2021/05/28 03:39:27;;;;;;;21.13;19.47;;;;;;;;;;4998369;28;20526;-80
2021/05/28 03:41:57;;;;;;;22.37;20.57;;;;;;;;;;5015369;28;20522;-80
2021/05/28 03:44:24;;;;;;;21.03;19.60;;;;;;;;;;5015361;28;20439;-80
2021/05/28 03:46:51;;;;;;;20.70;19.27;;;;;;;;;;5015197;28;20448;-80
2021/05/28 03:49:18;;;;;;;23.37;21.27;;;;;;;;;;5014940;28;20454;-80
2021/05/28 03:51:44;;;;;;;22.40;21.00;;;;;;;;;;5015206;28;20418;-80
2021/05/28 03:54:11;;;;;;;22.30;20.50;;;;;;;;;;5014763;28;20438;-80
2021/05/28 03:56:39;;;;;;;21.65;20.02;;;;;;;;;;5015145;28;20418;-80
2021/05/28 03:59:07;;;;;;;21.23;19.93;;;;;;;;;;4997620;28;20287;-80
2021/05/28 04:01:34;;;;;;;21.53;20.10;;;;;;;;;;5014805;28;20444;-80
2021/05/28 04:04:01;;;;;;;22.27;20.70;;;;;;;;;;5015197;28;20843;-80
2021/05/28 04:06:28;;;;;;;23.33;21.00;;;;;;;;;;4997323;28;20918;-80
2021/05/28 04:08:55;;;;;;;21.63;20.07;;;;;;;;;;5014585;28;20454;-80
2021/05/28 04:11:22;;;;;;;22.02;20.40;;;;;;;;;;5014563;28;20468;-80
2021/05/28 04:13:49;;;;;;;22.07;20.50;;;;;;;;;;5014914;28;20192;-80
2021/05/28 04:16:17;;;;;;;22.33;20.33;;;;;;;;;;5014681;28;20439;-79
2021/05/28 04:18:44;;;;;;;22.98;21.20;;;;;;;;;;5014587;28;20436;-80
2021/05/28 04:21:11;;;;;;;21.60;20.02;;;;;;;;;;5014668;28;20196;-80
2021/05/28 04:23:38;;;;;;;22.92;20.83;;;;;;;;;;5014047;28;20193;-79
2021/05/28 04:26:05;;;;;;;22.23;20.53;;;;;;;;;;5014768;28;20216;-80
2021/05/28 04:28:32;;;;;;;23.30;21.45;;;;;;;;;;5014653;28;20407;-80
2021/05/28 04:30:59;;;;;;;23.90;21.70;;;;;;;;;;5014225;28;20945;-80
2021/05/28 04:33:27;;;;;;;23.83;21.87;;;;;;;;;;5014530;28;20411;-80
2021/05/28 04:35:54;;;;;;;23.03;21.43;;;;;;;;;;5014480;28;20599;-80
2021/05/28 04:38:21;;;;;;;22.93;21.43;;;;;;;;;;5014366;28;20452;-80
2021/05/28 04:40:50;;;;;;;24.77;22.27;;;;;;;;;;5014238;28;20465;-80
2021/05/28 04:43:17;;;;;;;22.30;20.70;;;;;;;;;;5014022;28;20422;-80
2021/05/28 04:45:44;;;;;;;24.67;22.98;;;;;;;;;;4997336;28;20414;-80
2021/05/28 04:48:11;;;;;;;24.93;22.60;;;;;;;;;;5013826;28;20243;-80
2021/05/28 04:50:39;;;;;;;24.67;22.97;;;;;;;;;;5014261;28;20447;-80
2021/05/28 04:53:07;;;;;;;25.63;23.53;;;;;;;;;;5014274;28;20435;-80
2021/05/28 04:55:34;;;;;;;24.77;22.97;;;;;;;;;;5013567;28;20450;-80
2021/05/28 04:58:01;;;;;;;27.97;25.73;;;;;;;;;;5013734;28;20447;-80
2021/05/28 05:00:28;;;;;;;25.33;23.33;;;;;;;;;;5013988;28;20462;-80
2021/05/28 05:02:56;;;;;;;27.30;24.97;;;;;;;;;;5014054;28;20447;-80
2021/05/28 05:05:24;;;;;;;27.30;24.70;;;;;;;;;;5013994;28;20444;-80
2021/05/28 05:07:52;;;;;;;26.97;25.07;;;;;;;;;;5013963;28;20906;-80
2021/05/28 05:10:19;;;;;;;25.20;23.50;;;;;;;;;;5014036;28;20421;-80
2021/05/28 05:12:46;;;;;;;25.47;23.87;;;;;;;;;;5013773;28;20922;-79
2021/05/28 05:15:13;;;;;;;25.40;23.30;;;;;;;;;;5013761;28;20910;-80
2021/05/28 05:17:40;;;;;;;25.80;23.77;;;;;;;;;;5013865;28;20792;-80
2021/05/28 05:20:08;;;;;;;26.37;24.40;;;;;;;;;;5013899;28;20462;-80
2021/05/28 05:22:34;;;;;;;25.37;23.40;;;;;;;;;;5013565;28;20937;-80
2021/05/28 05:25:02;;;;;;;26.23;24.43;;;;;;;;;;5013883;28;20473;-80
2021/05/28 05:27:29;;;;;;;27.73;25.50;;;;;;;;;;5013466;28;20448;-80
2021/05/28 05:29:56;;;;;;;26.33;24.43;;;;;;;;;;4996273;28;20458;-80
2021/05/28 05:32:23;;;;;;;26.57;24.63;;;;;;;;;;5014272;28;20497;-80
2021/05/28 05:34:50;;;;;;;27.37;25.10;;;;;;;;;;5014586;28;20443;-80
2021/05/28 05:37:17;;;;;;;26.23;24.40;;;;;;;;;;5017417;28;20454;-79
2021/05/28 05:39:44;;;;;;;25.53;23.80;;;;;;;;;;5017338;28;20969;-80
2021/05/28 05:42:12;;;;;;;25.90;23.90;;;;;;;;;;5000261;28;20954;-80
2021/05/28 05:44:39;;;;;;;25.87;23.43;;;;;;;;;;5017574;28;20440;-80
2021/05/28 05:47:06;;;;;;;25.90;23.90;;;;;;;;;;5017192;28;20427;-80
2021/05/28 05:49:34;;;;;;;24.90;23.30;;;;;;;;;;5017143;28;20967;-80
2021/05/28 05:52:01;;;;;;;27.73;25.30;;;;;;;;;;5017506;28;20497;-80
2021/05/28 05:54:28;;;;;;;26.43;24.63;;;;;;;;;;5017344;28;20450;-80
2021/05/28 05:56:55;;;;;;;26.93;24.83;;;;;;;;;;5017347;28;20806;-81
2021/05/28 05:59:23;;;;;;;27.40;25.30;;;;;;;;;;5016903;28;21061;-80
2021/05/28 06:01:50;;;;;;;27.60;25.30;;;;;;;;;;5017023;28;20805;-80
2021/05/28 06:04:17;;;;;;;26.50;24.67;;;;;;;;;;4999788;28;20912;-79
2021/05/28 06:06:44;;;;;;;25.97;24.07;;;;;;;;;;5017152;28;20422;-80
2021/05/28 06:09:11;;;;;;;26.37;24.20;;;;;;;;;;4999846;28;20467;-79
2021/05/28 06:11:39;;;;;;;25.80;24.00;;;;;;;;;;5016867;28;20410;-88
2021/05/28 06:14:06;;;;;;;27.00;25.10;;;;;;;;;;5017124;28;20482;-82
2021/05/28 06:16:34;;;;;;;27.20;24.90;;;;;;;;;;5016402;28;20447;-85
2021/05/28 06:19:01;;;;;;;28.57;26.63;;;;;;;;;;5016983;28;20440;-80
2021/05/28 06:21:28;;;;;;;26.43;24.57;;;;;;;;;;5016805;28;20527;-80
2021/05/28 06:23:55;;;;;;;25.53;23.83;;;;;;;;;;5016520;28;21003;-79
2021/05/28 06:26:22;;;;;;;28.13;25.93;;;;;;;;;;5016598;28;20444;-79
2021/05/28 06:28:49;;;;;;;25.80;24.10;;;;;;;;;;5016462;28;20419;-79
2021/05/28 06:31:16;;;;;;;26.17;24.27;;;;;;;;;;4999264;28;20931;-84
2021/05/28 06:33:44;;;;;;;28.57;26.20;;;;;;;;;;5016609;28;20419;-79
2021/05/28 06:36:11;;;;;;;26.77;24.90;;;;;;;;;;5016409;28;20788;-76
2021/05/28 06:38:37;;;;;;;27.20;25.17;;;;;;;;;;4982802;28;20467;-79
2021/05/28 06:41:04;;;;;;;26.70;24.63;;;;;;;;;;5016361;28;20450;-80
2021/05/28 06:43:31;;;;;;;27.57;25.60;;;;;;;;;;5016223;28;20452;-80
2021/05/28 06:45:59;;;;;;;26.13;24.30;;;;;;;;;;5015759;28;20913;-79
2021/05/28 06:48:26;;;;;;;26.43;24.47;;;;;;;;;;5015913;28;20527;-80
2021/05/28 06:50:54;;;;;;;25.50;23.80;;;;;;;;;;5016376;28;20531;-80
2021/05/28 06:53:21;;;;;;;25.47;23.63;;;;;;;;;;5016354;28;20453;-79
2021/05/28 06:55:51;;;;;;;26.23;24.03;;;;;;;;;;5015852;28;20823;-79
2021/05/28 06:58:20;;;;;;;26.00;24.20;;;;;;;;;;5015431;28;20459;-79
2021/05/28 07:00:50;;;;;;;24.80;22.90;;;;;;;;;;5015840;28;20527;-80
2021/05/28 07:03:17;;;;;;;24.63;22.57;;;;;;;;;;4998275;28;20852;-80
2021/05/28 07:05:44;;;;;;;24.00;22.33;;;;;;;;;;5015995;28;20439;-80
2021/05/28 07:08:13;;;;;;;24.90;23.10;;;;;;;;;;5015981;28;20423;-79
2021/05/28 07:10:40;;;;;;;26.37;24.27;;;;;;;;;;5015612;28;20905;-79
2021/05/28 07:13:09;;;;;;;26.77;24.80;;;;;;;;;;5015221;28;20456;-78
2021/05/28 07:15:39;;;;;;;25.43;23.73;;;;;;;;;;5014071;28;20860;-78
2021/05/28 07:18:07;;;;;;;27.47;25.30;;;;;;;;;;5009542;28;20852;-78
2021/05/28 07:20:34;;;;;;;25.40;23.57;;;;;;;;;;5015307;28;20965;-79
2021/05/28 07:23:06;;;;;;;25.53;23.57;;;;;;;;;;5015703;28;20558;-79
2021/05/28 07:25:40;;;;;;;25.47;23.53;;;;;;;;;;5015503;28;20794;-78
2021/05/28 07:28:07;;;;;;;25.50;23.70;;;;;;;;;;5015511;28;20418;-78
2021/05/28 07:30:34;;;;;;;27.30;25.20;;;;;;;;;;5015458;28;20407;-80
2021/05/28 07:33:01;;;;;;;26.80;24.90;;;;;;;;;;5015381;28;20416;-81
2021/05/28 07:35:29;;;;;;;26.37;24.63;;;;;;;;;;5015933;28;20443;-87
2021/05/28 07:37:56;;;;;;;26.90;24.63;;;;;;;;;;5016460;28;20440;-91
2021/05/28 07:40:23;;;;;;;27.80;25.47;;;;;;;;;;5015816;28;20454;-91
2021/05/28 07:42:51;;;;;;;27.13;25.13;;;;;;;;;;5016116;28;20448;-91
2021/05/28 07:45:18;;;;;;;29.67;27.47;;;;;;;;;;5015731;28;20406;-90
2021/05/28 07:47:45;;;;;;;28.37;26.33;;;;;;;;;;5015698;28;20495;-90
2021/05/28 07:50:14;;;;;;;29.50;27.10;;;;;;;;;;4998489;28;20423;-93
2021/05/28 07:52:41;;;;;;;28.97;26.87;;;;;;;;;;5015606;28;20407;-93
2021/05/28 07:55:08;;;;;;;27.93;25.83;;;;;;;;;;5015775;28;20473;-89
2021/05/28 07:57:35;;;;;;;30.83;28.43;;;;;;;;;;4997418;28;20437;-93
2021/05/28 08:00:04;;;;;;;28.90;26.80;;;;;;;;;;5015388;28;20487;-90
2021/05/28 08:02:30;;;;;;;30.03;27.73;;;;;;;;;;5015488;28;20412;-93
2021/05/28 08:04:57;;;;;;;30.57;28.17;;;;;;;;;;5015416;28;20436;-94
2021/05/28 08:07:24;;;;;;;29.83;27.50;;;;;;;;;;5015335;28;20934;-92
2021/05/28 08:09:51;;;;;;;30.17;27.80;;;;;;;;;;5015655;28;20480;-86
2021/05/28 08:12:18;;;;;;;32.33;29.63;;;;;;;;;;5015249;28;20784;-94
2021/05/28 08:14:45;;;;;;;29.90;27.70;;;;;;;;;;5014954;28;20438;-81
2021/05/28 08:17:13;;;;;;;29.10;27.00;;;;;;;;;;5014848;28;20954;-93
2021/05/28 08:19:40;;;;;;;30.70;28.33;;;;;;;;;;5014919;28;20462;-86
2021/05/28 08:22:07;;;;;;;29.30;26.97;;;;;;;;;;5015113;28;20444;-82
2021/05/28 08:24:34;;;;;;;30.00;27.60;;;;;;;;;;5014707;28;20452;-81
2021/05/28 08:27:01;;;;;;;30.50;28.20;;;;;;;;;;5014710;28;20423;-84
2021/05/28 08:29:27;;;;;;;30.93;28.10;;;;;;;;;;5014858;28;20416;-84
2021/05/28 08:31:55;;;;;;;29.00;26.80;;;;;;;;;;5014591;28;20962;-82
2021/05/28 08:34:23;;;;;;;30.57;28.33;;;;;;;;;;5014536;28;20454;-79
2021/05/28 08:36:50;;;;;;;30.50;28.10;;;;;;;;;;5014196;28;20944;-87
2021/05/28 08:39:17;;;;;;;31.03;28.67;;;;;;;;;;5014836;28;20885;-84
2021/05/28 08:41:44;;;;;;;30.00;27.90;;;;;;;;;;4997242;28;20501;-83
2021/05/28 08:44:11;;;;;;;30.70;28.17;;;;;;;;;;5014816;28;20444;-86
2021/05/28 08:46:39;;;;;;;31.70;29.10;;;;;;;;;;5014435;28;20434;-87
2021/05/28 08:49:09;;;;;;;30.43;28.13;;;;;;;;;;5014580;28;20530;-84
2021/05/28 08:51:38;;;;;;;31.70;29.50;;;;;;;;;;5014535;28;20452;-87
2021/05/28 08:54:05;;;;;;;31.43;29.23;;;;;;;;;;5014387;28;20509;-92
2021/05/28 08:56:33;;;;;;;32.17;29.30;;;;;;;;;;5014776;28;20786;-87
2021/05/28 08:59:00;;;;;;;31.37;29.17;;;;;;;;;;4997731;28;20762;-88
2021/05/28 09:01:27;;;;;;;31.90;29.57;;;;;;;;;;5014666;28;20513;-87
2021/05/28 09:03:59;;;;;;;31.13;28.83;;;;;;;;;;5014820;28;20414;-85
2021/05/28 09:06:26;;;;;;;31.93;29.43;;;;;;;;;;5014637;28;20490;-87
2021/05/28 09:09:08;;;;;;;32.07;29.77;;;;;;;;;;5014162;28;20451;-87
2021/05/28 09:11:50;;;;;;;32.07;29.47;;;;;;;;;;5014528;28;20422;-86
2021/05/28 09:14:29;;;;;;;32.57;29.93;;;;;;;;;;5014357;28;20415;-85
2021/05/28 09:16:56;;;;;;;30.17;27.87;;;;;;;;;;5015387;28;20428;-84
2021/05/28 09:19:23;;;;;;;32.40;29.97;;;;;;;;;;4997835;28;20411;-82
2021/05/28 09:21:55;;;;;;;32.50;29.90;;;;;;;;;;5014239;28;20522;-83
2021/05/28 09:24:31;;;;;;;31.83;29.60;;;;;;;;;;5014596;28;20419;-80
2021/05/28 09:27:18;;;;;;;30.67;28.13;;;;;;;;;;5014474;28;20447;-88
2021/05/28 09:29:58;;;;;;;31.43;29.13;;;;;;;;;;4996688;28;20454;-81
2021/05/28 09:32:26;;;;;;;31.67;29.17;;;;;;;;;;5014084;28;20446;-85
2021/05/28 09:34:53;;;;;;;32.27;29.60;;;;;;;;;;5014415;28;20551;-85
2021/05/28 09:37:20;;;;;;;30.83;28.30;;;;;;;;;;5014140;28;20832;-85
2021/05/28 09:39:49;;;;;;;31.93;29.67;;;;;;;;;;5014150;28;20515;-85
2021/05/28 09:42:16;;;;;;;31.00;28.80;;;;;;;;;;5014012;28;20900;-85
2021/05/28 09:44:43;;;;;;;31.30;28.60;;;;;;;;;;5013842;28;20431;-85
2021/05/28 09:47:13;;;;;;;29.53;27.33;;;;;;;;;;5014129;28;20446;-85
2021/05/28 09:49:41;;;;;;;32.20;29.83;;;;;;;;;;5013677;28;20524;-89
2021/05/28 09:52:10;;;;;;;30.67;28.57;;;;;;;;;;5013526;28;20439;-81
2021/05/28 09:54:37;;;;;;;31.60;29.30;;;;;;;;;;5013514;28;20483;-82
2021/05/28 09:57:05;;;;;;;29.60;27.43;;;;;;;;;;5013470;28;20495;-82
2021/05/28 09:59:45;;;;;;;28.97;26.93;;;;;;;;;;5013624;28;20472;-82
2021/05/28 10:02:22;;;;;;;28.43;26.43;;;;;;;;;;5013568;28;20481;-82
2021/05/28 10:04:53;;;;;;;27.50;25.60;;;;;;;;;;5013427;28;20445;-82
2021/05/28 10:07:20;;;;;;;29.20;27.10;;;;;;;;;;4995928;28;20427;-82
2021/05/28 10:09:47;;;;;;;29.43;27.30;;;;;;;;;;5013439;28;20441;-83
2021/05/28 10:12:15;;;;;;;28.70;26.70;;;;;;;;;;4995909;28;20444;-83
2021/05/28 10:14:42;;;;;;;31.80;29.40;;;;;;;;;;5013280;28;20441;-83
2021/05/28 10:17:09;;;;;;;29.23;26.97;;;;;;;;;;5013621;28;20425;-83
2021/05/28 10:19:36;;;;;;;29.50;27.40;;;;;;;;;;5013455;28;20491;-83
2021/05/28 10:22:03;;;;;;;29.43;27.20;;;;;;;;;;5016025;28;20452;-83
2021/05/28 10:24:31;;;;;;;27.00;25.23;;;;;;;;;;5017899;28;20432;-84
2021/05/28 10:26:58;;;;;;;28.63;26.43;;;;;;;;;;5017124;28;20437;-84
2021/05/28 10:29:26;;;;;;;29.27;26.97;;;;;;;;;;4999616;28;20540;-84
2021/05/28 10:31:54;;;;;;;29.33;27.07;;;;;;;;;;5016908;28;20460;-84
2021/05/28 10:34:21;;;;;;;30.47;28.27;;;;;;;;;;4999646;28;20491;-83
2021/05/28 10:36:48;;;;;;;29.10;27.10;;;;;;;;;;5016568;28;20955;-85
2021/05/28 10:39:16;;;;;;;29.33;27.20;;;;;;;;;;5016947;28;20797;-85
2021/05/28 10:41:44;;;;;;;28.17;26.27;;;;;;;;;;5016615;28;20454;-84
2021/05/28 10:44:14;;;;;;;25.80;24.10;;;;;;;;;;5016716;28;20509;-85
2021/05/28 10:46:56;;;;;;;25.33;23.63;;;;;;;;;;5016881;28;20501;-84
2021/05/28 10:49:41;;;;;;;24.93;23.30;;;;;;;;;;5016359;28;20488;-85
2021/05/28 10:52:09;;;;;;;24.97;23.37;;;;;;;;;;5016613;28;20507;-84
2021/05/28 10:54:43;;;;;;;25.70;24.00;;;;;;;;;;5016294;28;21036;-84
2021/05/28 10:57:27;;;;;;;26.07;24.27;;;;;;;;;;5016272;28;20440;-84
2021/05/28 11:00:03;;;;;;;26.70;24.57;;;;;;;;;;4999086;28;20450;-86
2021/05/28 11:02:47;;;;;;;25.60;24.10;;;;;;;;;;5016581;28;20413;-86
2021/05/28 11:05:15;;;;;;;24.93;23.20;;;;;;;;;;5016606;28;20413;-86
2021/05/28 11:07:44;;;;;;;25.30;23.60;;;;;;;;;;5016362;28;20467;-86
2021/05/28 11:10:21;;;;;;;24.63;23.13;;;;;;;;;;5016606;28;20415;-86
2021/05/28 11:12:48;;;;;;;24.53;22.70;;;;;;;;;;4999021;28;20444;-86
2021/05/28 11:15:16;;;;;;;24.27;22.77;;;;;;;;;;5016408;28;20437;-85
2021/05/28 11:17:58;;;;;;;23.10;21.60;;;;;;;;;;5016336;28;20507;-85
2021/05/28 11:20:27;;;;;;;23.87;22.50;;;;;;;;;;5015957;28;20543;-86
2021/05/28 11:22:54;;;;;;;25.50;23.80;;;;;;;;;;5016352;28;20430;-86
2021/05/28 11:25:21;;;;;;;26.63;25.03;;;;;;;;;;5016269;28;20503;-84
2021/05/28 11:27:57;;;;;;;25.50;23.83;;;;;;;;;;4998514;28;20427;-87
2021/05/28 11:30:38;;;;;;;25.63;23.90;;;;;;;;;;5016225;28;20493;-86
2021/05/28 11:33:07;;;;;;;22.93;21.53;;;;;;;;;;4982417;28;20485;-85
2021/05/28 11:35:43;;;;;;;24.13;22.53;;;;;;;;;;4998570;28;20477;-86
2021/05/28 11:38:11;;;;;;;24.63;23.13;;;;;;;;;;5015947;28;20470;-86
2021/05/28 11:40:40;;;;;;;28.40;26.70;;;;;;;;;;5015731;28;20494;-89
2021/05/28 11:43:07;;;;;;;26.03;24.13;;;;;;;;;;5016043;28;20416;-86
2021/05/28 11:45:35;;;;;;;23.90;22.50;;;;;;;;;;5016073;28;20436;-86
2021/05/28 11:48:02;;;;;;;25.70;24.20;;;;;;;;;;5015540;28;20476;-86
2021/05/28 11:50:39;;;;;;;22.80;21.50;;;;;;;;;;5015481;28;20440;-86
2021/05/28 11:53:07;;;;;;;23.47;22.07;;;;;;;;;;5015811;28;20792;-86
2021/05/28 11:55:42;;;;;;;24.10;22.60;;;;;;;;;;5015622;28;20829;-86
2021/05/28 11:58:09;;;;;;;22.90;21.50;;;;;;;;;;5015309;28;20413;-86
2021/05/28 12:00:36;;;;;;;22.40;21.10;;;;;;;;;;4998226;28;21018;-86
2021/05/28 12:03:03;;;;;;;22.67;21.13;;;;;;;;;;5015170;28;20916;-85
2021/05/28 12:05:35;;;;;;;22.10;20.73;;;;;;;;;;5015386;28;20423;-86
2021/05/28 12:08:02;;;;;;;22.33;20.93;;;;;;;;;;5015419;28;20479;-85
2021/05/28 12:10:30;;;;;;;22.43;21.03;;;;;;;;;;5014852;28;20841;-86
2021/05/28 12:12:58;;;;;;;21.30;20.10;;;;;;;;;;4997916;28;20991;-85
2021/05/28 12:15:26;;;;;;;22.93;21.47;;;;;;;;;;4997638;28;20487;-85
2021/05/28 12:17:53;;;;;;;22.40;20.90;;;;;;;;;;5015097;28;20457;-85
2021/05/28 12:20:21;;;;;;;22.43;20.93;;;;;;;;;;5015295;28;20459;-85
2021/05/28 12:23:00;;;;;;;22.57;21.27;;;;;;;;;;5015231;28;20497;-85
2021/05/28 12:25:27;;;;;;;22.60;21.30;;;;;;;;;;5014862;28;20435;-86
2021/05/28 12:27:54;;;;;;;22.00;20.80;;;;;;;;;;5014828;28;20442;-85
2021/05/28 12:30:24;;;;;;;22.00;20.80;;;;;;;;;;5014857;28;20437;-92
2021/05/28 12:32:51;;;;;;;23.00;21.70;;;;;;;;;;5015358;28;20865;-91
2021/05/28 12:35:18;;;;;;;21.73;20.43;;;;;;;;;;5015077;28;20816;-90
2021/05/28 12:38:06;;;;;;;21.00;19.70;;;;;;;;;;4997505;28;20428;-90
2021/05/28 12:40:33;;;;;;;22.67;21.10;;;;;;;;;;5014836;28;20459;-90
2021/05/28 12:43:01;;;;;;;23.87;22.27;;;;;;;;;;5014961;28;20420;-86
2021/05/28 12:45:38;;;;;;;25.27;23.40;;;;;;;;;;5014735;28;20457;-86
2021/05/28 12:48:06;;;;;;;23.37;21.87;;;;;;;;;;5014438;28;20481;-85
2021/05/28 12:50:35;;;;;;;22.80;21.50;;;;;;;;;;5014831;28;20496;-87
2021/05/28 12:53:04;;;;;;;21.80;20.50;;;;;;;;;;5014467;28;20967;-89
2021/05/28 12:55:33;;;;;;;22.90;21.40;;;;;;;;;;5014393;28;20473;-91
2021/05/28 12:58:01;;;;;;;22.57;21.03;;;;;;;;;;5014197;28;20449;-84
2021/05/28 13:00:31;;;;;;;23.37;21.97;;;;;;;;;;5014209;28;20486;-85
2021/05/28 13:02:58;;;;;;;23.53;22.00;;;;;;;;;;5014250;28;20466;-84
2021/05/28 13:05:31;;;;;;;22.93;21.43;;;;;;;;;;5014432;28;20455;-84
2021/05/28 13:07:58;;;;;;;23.77;22.27;;;;;;;;;;5014100;28;20415;-84
2021/05/28 13:10:26;;;;;;;23.53;22.03;;;;;;;;;;5014350;28;20532;-84
2021/05/28 13:12:54;;;;;;;22.70;21.30;;;;;;;;;;5014066;28;20433;-84
2021/05/28 13:15:22;;;;;;;23.07;21.67;;;;;;;;;;5014180;28;20441;-84
2021/05/28 13:17:55;;;;;;;22.23;20.83;;;;;;;;;;5014366;28;20420;-84
2021/05/28 13:20:25;;;;;;;22.30;21.10;;;;;;;;;;5014463;28;20443;-84
2021/05/28 13:22:53;;;;;;;24.47;22.67;;;;;;;;;;5014120;28;20419;-84
2021/05/28 13:25:21;;;;;;;27.67;25.87;;;;;;;;;;5014259;28;20421;-84
2021/05/28 13:27:49;;;;;;;27.87;26.07;;;;;;;;;;5013620;28;20434;-84
2021/05/28 13:30:17;;;;;;;23.27;21.90;;;;;;;;;;5013990;28;20459;-84
2021/05/28 13:32:46;;;;;;;24.73;22.87;;;;;;;;;;4996698;28;20457;-84
2021/05/28 13:35:15;;;;;;;25.47;23.50;;;;;;;;;;5014114;28;20411;-84
2021/05/28 13:37:42;;;;;;;22.30;21.10;;;;;;;;;;5014022;28;20414;-87
2021/05/28 13:40:10;;;;;;;23.80;22.47;;;;;;;;;;4996680;28;20525;-83
2021/05/28 13:42:37;;;;;;;24.87;23.27;;;;;;;;;;5014171;28;20408;-84
2021/05/28 13:45:05;;;;;;;22.87;21.47;;;;;;;;;;5013769;28;20420;-84
2021/05/28 13:47:33;;;;;;;23.57;22.17;;;;;;;;;;4994054;28;20422;-84
2021/05/28 13:50:00;;;;;;;23.43;21.90;;;;;;;;;;4994087;28;20465;-84
2021/05/28 13:52:27;;;;;;;23.10;21.80;;;;;;;;;;4994119;28;20450;-83
2021/05/28 13:54:53;;;;;;;23.40;22.20;;;;;;;;;;4994329;28;20437;-85
2021/05/28 13:57:20;;;;;;;22.37;21.17;;;;;;;;;;4997618;28;20404;-85
2021/05/28 13:59:47;;;;;;;22.70;21.27;;;;;;;;;;4980979;28;20468;-85
2021/05/28 14:02:15;;;;;;;22.80;21.23;;;;;;;;;;4997966;28;20420;-83
2021/05/28 14:04:42;;;;;;;24.23;22.77;;;;;;;;;;4998104;28;20414;-85
2021/05/28 14:07:09;;;;;;;25.80;23.60;;;;;;;;;;4997618;28;20915;-84
2021/05/28 14:09:36;;;;;;;22.27;20.97;;;;;;;;;;4998006;28;20801;-85
2021/05/28 14:12:06;;;;;;;27.10;24.90;;;;;;;;;;4997202;28;20453;-84
2021/05/28 14:14:33;;;;;;;23.03;21.73;;;;;;;;;;4997787;28;20422;-90
2021/05/28 14:17:00;;;;;;;23.10;21.70;;;;;;;;;;4998458;28;20438;-91
2021/05/28 14:19:27;;;;;;;23.47;22.07;;;;;;;;;;4997829;28;20447;-86
2021/05/28 14:21:54;;;;;;;22.50;21.20;;;;;;;;;;4997894;28;20490;-87
2021/05/28 14:24:22;;;;;;;21.57;20.33;;;;;;;;;;4997636;28;20441;-89